createdAt,value
2018-12-30T00:01:41.077Z,40.73
2018-12-30T00:04:10.045Z,39.13
2018-12-30T00:06:40.237Z,45.83
2018-12-30T00:09:09.774Z,43.67
2018-12-30T00:11:39.101Z,40.93
2018-12-30T00:14:08.278Z,34.30
2018-12-30T00:16:37.371Z,46.60
2018-12-30T00:19:06.689Z,39.80
2018-12-30T00:21:35.728Z,36.43
2018-12-30T00:24:04.834Z,41.63
2018-12-30T00:26:33.788Z,41.30
2018-12-30T00:29:02.999Z,37.30
2018-12-30T00:31:31.848Z,38.73
2018-12-30T00:34:00.948Z,42.10
2018-12-30T00:36:29.923Z,39.23
2018-12-30T00:38:59.132Z,40.63
2018-12-30T00:41:28.385Z,43.33
2018-12-30T00:43:57.444Z,38.33
2018-12-30T00:46:26.678Z,42.17
2018-12-30T00:48:55.611Z,35.40
2018-12-30T00:51:24.666Z,40.57
2018-12-30T00:53:53.684Z,45.50
2018-12-30T00:56:22.722Z,43.33
2018-12-30T00:58:51.665Z,38.70
2018-12-30T01:01:20.730Z,44.97
2018-12-30T01:03:49.859Z,44.77
2018-12-30T01:06:18.827Z,34.80
2018-12-30T01:08:48.234Z,42.77
2018-12-30T01:11:17.307Z,32.53
2018-12-30T01:13:46.540Z,38.73
2018-12-30T01:16:15.659Z,34.60
2018-12-30T01:18:44.715Z,42.37
2018-12-30T01:21:13.775Z,31.37
2018-12-30T01:23:42.800Z,33.23
2018-12-30T01:26:11.718Z,30.97
2018-12-30T01:28:40.661Z,39.37
2018-12-30T01:31:09.645Z,34.53
2018-12-30T01:33:38.675Z,36.33
2018-12-30T01:36:08.060Z,32.17
2018-12-30T01:38:37.079Z,36.30
2018-12-30T01:41:06.051Z,34.67
2018-12-30T01:43:35.061Z,43.97
2018-12-30T01:46:04.123Z,31.27
2018-12-30T01:48:33.428Z,31.80
2018-12-30T01:51:02.627Z,34.00
2018-12-30T01:53:31.678Z,32.83
2018-12-30T01:56:00.675Z,34.67
2018-12-30T01:58:29.841Z,35.40
2018-12-30T02:00:58.824Z,35.03
2018-12-30T02:03:27.934Z,36.07
2018-12-30T02:05:56.829Z,29.80
2018-12-30T02:08:25.842Z,36.80
2018-12-30T02:10:54.817Z,29.37
2018-12-30T02:13:23.824Z,26.30
2018-12-30T02:15:52.795Z,27.17
2018-12-30T02:18:21.703Z,28.10
2018-12-30T02:20:50.590Z,30.17
2018-12-30T02:23:19.574Z,30.23
2018-12-30T02:25:48.536Z,20.40
2018-12-30T02:28:17.488Z,19.30
2018-12-30T02:30:46.377Z,15.03
2018-12-30T02:33:15.358Z,12.73
2018-12-30T02:35:44.341Z,24.70
2018-12-30T02:38:13.312Z,9.10
2018-12-30T02:40:42.308Z,15.83
2018-12-30T02:43:11.352Z,10.90
2018-12-30T02:45:40.403Z,8.83
2018-12-30T02:48:09.470Z,11.30
2018-12-30T02:50:38.464Z,10.63
2018-12-30T02:53:07.358Z,9.57
2018-12-30T02:55:36.480Z,9.30
2018-12-30T02:58:05.519Z,9.07
2018-12-30T03:00:34.414Z,6.10
2018-12-30T03:03:03.390Z,7.60
2018-12-30T03:05:32.319Z,11.00
2018-12-30T03:08:01.301Z,9.17
2018-12-30T03:10:30.311Z,6.40
2018-12-30T03:12:59.325Z,8.97
2018-12-30T03:15:28.700Z,6.80
2018-12-30T03:17:57.722Z,10.40
2018-12-30T03:20:26.743Z,8.00
2018-12-30T03:22:55.727Z,10.57
2018-12-30T03:25:24.619Z,17.30
2018-12-30T03:27:53.637Z,8.40
2018-12-30T03:30:22.630Z,8.00
2018-12-30T03:32:51.664Z,13.50
2018-12-30T03:35:20.556Z,4.43
2018-12-30T03:37:49.431Z,7.37
2018-12-30T03:40:18.437Z,6.90
2018-12-30T03:42:47.391Z,8.27
2018-12-30T03:45:16.362Z,12.87
2018-12-30T03:47:45.321Z,12.90
2018-12-30T03:50:14.304Z,9.30
2018-12-30T03:52:43.284Z,6.40
2018-12-30T03:55:12.073Z,6.53
2018-12-30T03:57:41.003Z,6.43
2018-12-30T04:00:09.879Z,7.33
2018-12-30T04:02:38.864Z,13.00
2018-12-30T04:05:07.727Z,15.77
2018-12-30T04:07:36.728Z,4.57
2018-12-30T04:10:06.088Z,7.23
2018-12-30T04:12:35.245Z,6.33
2018-12-30T04:15:04.459Z,5.60
2018-12-30T04:17:33.460Z,11.67
2018-12-30T04:20:02.336Z,10.70
2018-12-30T04:22:31.318Z,6.10
2018-12-30T04:25:00.357Z,8.90
2018-12-30T04:27:29.346Z,8.27
2018-12-30T04:29:58.323Z,11.73
2018-12-30T04:32:27.250Z,12.53
2018-12-30T04:34:56.248Z,4.83
2018-12-30T04:37:25.178Z,9.87
2018-12-30T04:39:54.210Z,9.30
2018-12-30T04:42:23.179Z,7.50
2018-12-30T04:44:52.093Z,9.63
2018-12-30T04:47:21.130Z,9.27
2018-12-30T04:49:50.037Z,5.60
2018-12-30T04:52:25.601Z,7.57
2018-12-30T04:54:51.764Z,13.63
2018-12-30T04:57:20.607Z,5.30
2018-12-30T04:59:49.487Z,5.03
2018-12-30T05:02:18.428Z,7.73
2018-12-30T05:04:47.367Z,7.63
2018-12-30T05:07:16.309Z,6.93
2018-12-30T05:09:45.308Z,16.13
2018-12-30T05:12:14.180Z,5.33
2018-12-30T05:14:43.160Z,6.97
2018-12-30T05:17:12.147Z,11.57
2018-12-30T05:19:41.104Z,9.87
2018-12-30T05:22:10.031Z,3.53
2018-12-30T05:24:38.967Z,8.50
2018-12-30T05:27:07.860Z,7.13
2018-12-30T05:29:36.752Z,4.00
2018-12-30T05:32:05.697Z,12.40
2018-12-30T05:34:34.772Z,8.13
2018-12-30T05:37:03.674Z,9.37
2018-12-30T05:39:32.610Z,7.23
2018-12-30T05:42:01.672Z,8.00
2018-12-30T05:44:30.579Z,6.73
2018-12-30T05:46:59.593Z,5.63
2018-12-30T05:49:28.580Z,11.33
2018-12-30T05:51:57.504Z,14.43
2018-12-30T05:54:26.620Z,12.47
2018-12-30T05:56:55.461Z,6.50
2018-12-30T05:59:24.542Z,14.47
2018-12-30T06:01:53.642Z,11.53
2018-12-30T06:04:22.814Z,9.83
2018-12-30T06:06:51.877Z,12.63
2018-12-30T06:09:20.755Z,8.13
2018-12-30T06:11:49.730Z,10.87
2018-12-30T06:14:18.580Z,5.80
2018-12-30T06:16:47.487Z,11.73
2018-12-30T06:19:16.447Z,5.83
2018-12-30T06:21:45.383Z,11.00
2018-12-30T06:24:14.182Z,7.70
2018-12-30T06:26:43.152Z,12.33
2018-12-30T06:29:12.090Z,6.00
2018-12-30T06:31:41.194Z,6.23
2018-12-30T06:34:10.188Z,8.70
2018-12-30T06:36:39.102Z,10.50
2018-12-30T06:39:07.988Z,13.57
2018-12-30T06:41:36.959Z,23.63
2018-12-30T06:44:06.009Z,7.70
2018-12-30T06:46:34.914Z,19.77
2018-12-30T06:49:03.859Z,19.90
2018-12-30T06:51:32.860Z,18.10
2018-12-30T06:54:01.921Z,20.80
2018-12-30T06:56:30.869Z,14.20
2018-12-30T06:58:59.823Z,9.03
2018-12-30T07:01:28.702Z,8.97
2018-12-30T07:03:57.633Z,6.40
2018-12-30T07:06:26.671Z,8.40
2018-12-30T07:08:55.774Z,13.33
2018-12-30T07:11:24.795Z,18.97
2018-12-30T07:13:53.684Z,10.63
2018-12-30T07:16:22.764Z,7.47
2018-12-30T07:18:51.806Z,9.93
2018-12-30T07:21:20.745Z,17.67
2018-12-30T07:23:49.609Z,13.40
2018-12-30T07:26:18.515Z,15.50
2018-12-30T07:28:47.422Z,16.20
2018-12-30T07:31:16.532Z,7.20
2018-12-30T07:33:45.423Z,8.77
2018-12-30T07:36:14.442Z,7.33
2018-12-30T07:38:43.411Z,9.93
2018-12-30T07:41:12.284Z,10.93
2018-12-30T07:43:41.317Z,15.30
2018-12-30T07:46:10.208Z,10.33
2018-12-30T07:48:39.174Z,7.53
2018-12-30T07:51:08.191Z,7.60
2018-12-30T07:53:37.159Z,18.20
2018-12-30T07:56:06.099Z,9.47
2018-12-30T07:58:35.205Z,7.83
2018-12-30T08:01:04.113Z,7.57
2018-12-30T08:03:33.111Z,14.60
2018-12-30T08:06:02.192Z,12.43
2018-12-30T08:08:31.173Z,10.03
2018-12-30T08:11:00.142Z,8.20
2018-12-30T08:13:29.175Z,13.53
2018-12-30T08:15:58.163Z,12.67
2018-12-30T08:18:27.121Z,6.20
2018-12-30T08:20:56.000Z,9.80
2018-12-30T08:23:25.048Z,12.87
2018-12-30T08:25:54.194Z,9.10
2018-12-30T08:28:25.851Z,9.10
2018-12-30T08:30:55.026Z,12.70
2018-12-30T08:33:23.926Z,9.23
2018-12-30T08:35:52.916Z,11.50
2018-12-30T08:38:21.910Z,6.13
2018-12-30T08:40:51.004Z,15.60
2018-12-30T08:43:20.068Z,19.07
2018-12-30T08:45:48.983Z,16.43
2018-12-30T08:48:17.897Z,12.73
2018-12-30T08:50:47.316Z,8.90
2018-12-30T08:53:16.333Z,12.07
2018-12-30T08:55:45.293Z,12.53
2018-12-30T08:58:14.380Z,9.63
2018-12-30T09:00:43.765Z,10.40
2018-12-30T09:03:12.963Z,11.27
2018-12-30T09:05:41.820Z,16.70
2018-12-30T09:08:11.048Z,10.37
2018-12-30T09:10:40.205Z,12.70
2018-12-30T09:13:09.331Z,8.87
2018-12-30T09:15:38.431Z,19.70
2018-12-30T09:18:07.371Z,11.43
2018-12-30T09:20:36.327Z,10.40
2018-12-30T09:23:05.404Z,12.67
2018-12-30T09:25:34.517Z,15.30
2018-12-30T09:28:03.482Z,14.00
2018-12-30T09:30:32.627Z,18.87
2018-12-30T09:33:01.631Z,13.20
2018-12-30T09:35:30.577Z,10.93
2018-12-30T09:37:59.596Z,8.57
2018-12-30T09:40:28.508Z,11.50
2018-12-30T09:42:57.903Z,8.00
2018-12-30T09:45:26.709Z,9.30
2018-12-30T09:47:55.648Z,12.50
2018-12-30T09:50:24.619Z,31.07
2018-12-30T09:52:54.279Z,12.40
2018-12-30T09:55:24.557Z,7.27
2018-12-30T09:57:53.548Z,8.30
2018-12-30T10:00:23.016Z,11.87
2018-12-30T10:02:51.980Z,9.63
2018-12-30T10:05:21.901Z,26.30
2018-12-30T10:07:51.006Z,17.50
2018-12-30T10:10:20.065Z,26.10
2018-12-30T10:12:49.280Z,24.93
2018-12-30T10:15:18.410Z,26.70
2018-12-30T10:17:47.666Z,101.90
2018-12-30T10:20:16.966Z,30.57
2018-12-30T10:22:46.300Z,10.50
2018-12-30T10:25:17.795Z,14.73
2018-12-30T10:27:46.849Z,28.53
2018-12-30T10:30:15.971Z,10.47
2018-12-30T10:32:45.237Z,16.53
2018-12-30T10:35:14.612Z,15.50
2018-12-30T10:37:43.908Z,21.13
2018-12-30T10:40:13.263Z,11.30
2018-12-30T10:42:42.558Z,13.17
2018-12-30T10:45:11.763Z,13.63
2018-12-30T10:47:40.956Z,24.40
2018-12-30T10:50:10.363Z,12.23
2018-12-30T10:52:39.421Z,13.00
2018-12-30T10:55:08.499Z,9.73
2018-12-30T10:57:37.445Z,13.13
2018-12-30T11:00:07.132Z,8.90
2018-12-30T11:02:36.355Z,13.20
2018-12-30T11:05:05.372Z,11.33
2018-12-30T11:07:34.376Z,17.23
2018-12-30T11:10:03.418Z,17.50
2018-12-30T11:12:32.548Z,10.47
2018-12-30T11:15:01.690Z,9.93
2018-12-30T11:17:30.767Z,23.30
2018-12-30T11:19:59.814Z,11.17
2018-12-30T11:22:28.950Z,10.27
2018-12-30T11:24:58.052Z,17.67
2018-12-30T11:27:26.964Z,11.70
2018-12-30T11:29:56.079Z,8.50
2018-12-30T11:32:25.163Z,8.23
2018-12-30T11:34:54.163Z,12.03
2018-12-30T11:37:23.106Z,9.70
2018-12-30T11:39:52.168Z,17.10
2018-12-30T11:42:21.201Z,15.93
2018-12-30T11:44:50.284Z,17.50
2018-12-30T11:47:19.487Z,15.10
2018-12-30T11:49:48.647Z,9.20
2018-12-30T11:52:17.699Z,15.70
2018-12-30T11:54:47.106Z,10.33
2018-12-30T11:57:16.197Z,13.67
2018-12-30T11:59:45.222Z,13.90
2018-12-30T12:02:14.313Z,6.43
2018-12-30T12:04:43.477Z,9.90
2018-12-30T12:07:12.654Z,17.63
2018-12-30T12:09:41.767Z,13.67
2018-12-30T12:12:10.853Z,17.53
2018-12-30T12:14:40.182Z,14.77
2018-12-30T12:17:09.178Z,9.20
2018-12-30T12:19:38.237Z,10.17
2018-12-30T12:22:07.268Z,10.20
2018-12-30T12:24:36.362Z,10.53
2018-12-30T12:27:05.499Z,14.23
2018-12-30T12:29:34.584Z,20.53
2018-12-30T12:32:03.556Z,10.30
2018-12-30T12:34:32.615Z,13.20
2018-12-30T12:37:01.666Z,8.70
2018-12-30T12:39:30.690Z,13.43
2018-12-30T12:41:59.699Z,8.43
2018-12-30T12:44:28.735Z,11.00
2018-12-30T12:46:57.774Z,7.67
2018-12-30T12:49:26.939Z,15.20
2018-12-30T12:51:55.957Z,11.13
2018-12-30T12:54:31.903Z,11.43
2018-12-30T12:56:56.864Z,13.77
2018-12-30T12:59:26.179Z,13.50
2018-12-30T13:01:55.461Z,10.83
2018-12-30T13:04:24.715Z,11.00
2018-12-30T13:06:53.977Z,9.83
2018-12-30T13:09:23.161Z,9.23
2018-12-30T13:11:52.191Z,9.73
2018-12-30T13:14:21.386Z,10.07
2018-12-30T13:16:50.864Z,13.67
2018-12-30T13:19:20.026Z,5.63
2018-12-30T13:21:50.369Z,17.40
2018-12-30T13:24:19.527Z,14.60
2018-12-30T13:26:48.914Z,6.80
2018-12-30T13:29:17.967Z,17.40
2018-12-30T13:31:47.137Z,11.30
2018-12-30T13:34:16.438Z,17.07
2018-12-30T13:39:25.272Z,18.97
2018-12-30T13:42:00.197Z,13.90
2018-12-30T13:44:33.360Z,5.77
2018-12-30T13:47:15.683Z,8.03
2018-12-30T13:49:46.786Z,16.40
2018-12-30T14:03:51.902Z,15.30
2018-12-30T14:06:29.335Z,11.43
2018-12-30T14:08:58.809Z,18.17
2018-12-30T14:11:31.061Z,12.77
2018-12-30T14:14:00.193Z,12.20
2018-12-30T14:16:31.187Z,13.13
2018-12-30T14:19:02.469Z,11.23
2018-12-30T14:21:39.143Z,9.70
2018-12-30T14:24:08.415Z,8.60
2018-12-30T14:26:38.518Z,19.53
2018-12-30T14:29:08.392Z,8.90
2018-12-30T14:31:39.755Z,23.47
2018-12-30T14:34:18.691Z,13.13
2018-12-30T14:42:45.143Z,22.50
2018-12-30T15:00:03.779Z,15.93
2018-12-30T15:02:36.698Z,16.83
2018-12-30T15:05:08.405Z,13.80
2018-12-30T15:07:37.546Z,18.80
2018-12-30T15:10:08.005Z,18.03
2018-12-30T15:12:38.168Z,11.73
2018-12-30T15:15:14.500Z,15.93
2018-12-30T15:17:43.972Z,20.30
2018-12-30T15:20:13.680Z,19.33
2018-12-30T15:22:42.860Z,23.33
2018-12-30T15:25:13.426Z,20.13
2018-12-30T15:27:42.650Z,17.07
2018-12-30T15:30:12.605Z,20.60
2018-12-30T15:32:41.848Z,22.33
2018-12-30T15:35:14.403Z,33.90
2018-12-30T15:37:43.375Z,89.63
2018-12-30T15:40:13.092Z,135.27
2018-12-30T15:42:58.519Z,24.03
2018-12-30T15:45:27.938Z,31.57
2018-12-30T15:47:57.289Z,27.10
2018-12-30T15:50:27.156Z,20.60
2018-12-30T15:52:56.288Z,56.53
2018-12-30T15:55:25.407Z,67.50
2018-12-30T15:57:54.567Z,77.23
2018-12-30T16:00:23.630Z,93.97
2018-12-30T16:02:52.716Z,36.63
2018-12-30T16:05:22.111Z,27.30
2018-12-30T16:07:51.178Z,79.30
2018-12-30T16:10:20.289Z,41.90
2018-12-30T16:12:49.410Z,24.47
2018-12-30T16:15:18.574Z,28.80
2018-12-30T16:17:47.792Z,31.27
2018-12-30T16:20:16.882Z,22.87
2018-12-30T16:22:46.404Z,26.03
2018-12-30T16:25:17.774Z,20.63
2018-12-30T16:27:47.065Z,22.13
2018-12-30T16:30:22.180Z,22.57
2018-12-30T16:32:51.265Z,19.20
2018-12-30T16:35:20.301Z,20.00
2018-12-30T16:37:49.488Z,16.40
2018-12-30T16:40:18.510Z,41.23
2018-12-30T16:42:47.421Z,26.40
2018-12-30T16:45:18.767Z,19.23
2018-12-30T16:47:48.427Z,19.27
2018-12-30T16:50:17.365Z,26.53
2018-12-30T16:52:48.318Z,20.07
2018-12-30T17:12:33.978Z,23.33
2018-12-30T17:15:02.850Z,21.90
2018-12-30T17:29:07.309Z,23.87
2018-12-30T17:31:15.071Z,22.70
2018-12-30T17:33:48.988Z,27.70
2018-12-30T17:36:18.107Z,24.90
2018-12-30T17:38:47.136Z,21.10
2018-12-30T18:00:12.942Z,31.10
2018-12-30T18:02:42.012Z,25.73
2018-12-30T18:05:10.922Z,30.90
2018-12-30T18:07:39.990Z,31.40
2018-12-30T18:10:08.971Z,29.60
2018-12-30T18:12:41.037Z,27.77
2018-12-30T18:15:09.957Z,24.90
2018-12-30T18:27:59.596Z,30.23
2018-12-30T18:30:31.304Z,34.10
2018-12-30T18:33:00.178Z,26.60
2018-12-30T18:35:29.210Z,38.70
2018-12-30T18:38:01.069Z,33.33
2018-12-30T18:40:30.216Z,33.97
2018-12-30T18:42:59.422Z,34.27
2018-12-30T18:45:33.438Z,36.50
2018-12-30T18:48:04.522Z,29.97
2018-12-30T18:50:39.136Z,28.10
2018-12-30T18:53:08.565Z,39.20
2018-12-30T18:55:43.215Z,34.47
2018-12-30T18:58:15.710Z,33.53
2018-12-30T19:00:44.806Z,32.37
2018-12-30T19:03:15.013Z,33.97
2018-12-30T19:05:56.644Z,36.40
2018-12-30T19:08:25.138Z,38.43
2018-12-30T19:10:54.359Z,31.63
2018-12-30T19:13:23.600Z,32.40
2018-12-30T19:15:53.661Z,33.90
2018-12-30T19:18:26.111Z,32.43
2018-12-30T19:21:03.987Z,38.73
2018-12-30T19:23:37.120Z,43.77
2018-12-30T19:26:06.159Z,35.13
2018-12-30T19:28:35.263Z,35.63
2018-12-30T19:31:04.273Z,38.30
2018-12-30T19:33:37.445Z,34.13
2018-12-30T19:36:06.714Z,34.83
2018-12-30T19:38:37.565Z,32.33
2018-12-30T19:41:06.600Z,34.23
2018-12-30T19:43:36.910Z,33.40
2018-12-30T19:46:07.313Z,35.10
2018-12-30T19:48:36.336Z,44.50
2018-12-30T19:54:58.755Z,39.87
2018-12-30T19:57:38.239Z,33.00
2018-12-30T20:00:15.674Z,35.43
2018-12-30T20:02:44.665Z,39.57
2018-12-30T20:05:13.733Z,40.73
2018-12-30T20:07:48.821Z,29.50
2018-12-30T20:10:17.925Z,36.60
2018-12-30T20:12:47.245Z,37.70
2018-12-30T20:15:16.332Z,40.23
2018-12-30T20:17:45.433Z,38.73
2018-12-30T20:20:14.368Z,38.97
2018-12-30T20:22:43.566Z,32.27
2018-12-30T20:25:13.971Z,30.87
2018-12-30T20:27:43.001Z,33.83
2018-12-30T20:30:11.867Z,33.97
2018-12-30T20:32:41.109Z,34.93
2018-12-30T20:35:10.099Z,31.20
2018-12-30T20:37:39.128Z,28.10
2018-12-30T20:40:07.994Z,31.00
2018-12-30T20:42:38.680Z,31.83
2018-12-30T20:45:09.204Z,28.70
2018-12-30T20:47:38.123Z,34.80
2018-12-30T20:50:07.226Z,36.50
2018-12-30T20:52:36.211Z,32.60
2018-12-30T20:55:08.070Z,29.97
2018-12-30T20:57:37.279Z,30.50
2018-12-30T21:00:07.001Z,35.63
2018-12-30T21:02:41.934Z,46.33
2018-12-30T21:05:14.086Z,40.23
2018-12-30T21:07:42.960Z,36.87
2018-12-30T21:10:12.015Z,39.73
2018-12-30T21:12:41.103Z,36.17
2018-12-30T21:15:11.790Z,41.97
2018-12-30T21:17:40.737Z,41.70
2018-12-30T21:24:20.794Z,37.37
2018-12-30T21:26:49.898Z,55.30
2018-12-30T21:29:18.916Z,49.80
2018-12-30T21:31:49.537Z,50.60
2018-12-30T21:34:18.544Z,41.00
2018-12-30T21:36:47.581Z,47.63
2018-12-30T21:39:26.435Z,47.73
2018-12-30T21:41:55.877Z,47.37
2018-12-30T21:44:24.961Z,46.13
2018-12-30T21:46:57.128Z,55.30
2018-12-30T21:49:26.340Z,53.57
2018-12-30T21:51:55.169Z,45.33
2018-12-30T21:54:24.053Z,42.10
2018-12-30T21:56:55.094Z,47.00
2018-12-30T21:59:26.199Z,46.60
2018-12-30T22:01:55.360Z,41.30
2018-12-30T22:04:24.582Z,33.20
2018-12-30T22:06:56.748Z,40.00
2018-12-30T22:09:27.377Z,36.60
2018-12-30T22:11:56.297Z,36.83
2018-12-30T22:14:25.382Z,43.43
2018-12-30T22:16:55.301Z,45.73
2018-12-30T22:19:24.224Z,43.17
2018-12-30T22:21:53.366Z,34.80
2018-12-30T22:24:22.525Z,36.50
2018-12-30T22:26:52.214Z,35.23
2018-12-30T22:29:21.193Z,44.13
2018-12-30T22:31:50.249Z,35.03
2018-12-30T22:34:19.142Z,28.47
2018-12-30T22:36:48.144Z,32.50
2018-12-30T22:39:23.189Z,32.43
2018-12-30T22:41:52.202Z,30.77
2018-12-30T22:44:22.493Z,28.43
2018-12-30T22:46:51.437Z,28.07
2018-12-30T22:49:20.426Z,31.17
2018-12-30T22:51:50.659Z,29.13
2018-12-30T22:54:19.620Z,24.17
2018-12-30T22:56:48.456Z,23.60
2018-12-30T22:59:17.525Z,30.03
2018-12-30T23:01:47.588Z,34.50
2018-12-30T23:04:16.523Z,34.37
2018-12-30T23:06:46.527Z,31.17
2018-12-30T23:09:15.383Z,34.03
2018-12-30T23:11:44.315Z,29.80
2018-12-30T23:14:13.216Z,24.83
2018-12-30T23:16:42.129Z,33.80
2018-12-30T23:19:11.283Z,38.20
2018-12-30T23:21:40.260Z,34.07
2018-12-30T23:24:09.232Z,28.17
2018-12-30T23:26:38.321Z,32.40
2018-12-30T23:29:07.135Z,31.37
2018-12-30T23:31:36.209Z,36.93
2018-12-30T23:34:05.303Z,35.47
2018-12-30T23:36:34.269Z,30.13
2018-12-30T23:39:03.640Z,34.77
2018-12-30T23:41:32.699Z,31.57
2018-12-30T23:44:01.591Z,27.30
2018-12-30T23:46:30.705Z,28.13
2018-12-30T23:48:59.654Z,27.20
2018-12-30T23:51:29.693Z,26.20
2018-12-30T23:53:58.571Z,32.53
2018-12-30T23:56:27.525Z,29.00
2018-12-30T23:58:56.507Z,31.93
